sensor_id;sensor_type;location;lat;lon;timestamp;P1;durP1;ratioP1;P2;durP2;ratioP2
21503;SDS011;10913;51.992;9.228;2023-01-06T00:00:09;11.90;;;6.30;;
21503;SDS011;10913;51.992;9.228;2023-01-06T00:02:34;13.63;;;6.45;;
21503;SDS011;10913;51.992;9.228;2023-01-06T00:05:00;11.60;;;5.90;;
21503;SDS011;10913;51.992;9.228;2023-01-06T00:07:25;12.30;;;6.38;;
21503;SDS011;10913;51.992;9.228;2023-01-06T00:09:50;12.00;;;6.30;;
21503;SDS011;10913;51.992;9.228;2023-01-06T00:12:16;12.10;;;6.45;;
21503;SDS011;10913;51.992;9.228;2023-01-06T00:14:41;12.43;;;5.93;;
21503;SDS011;10913;51.992;9.228;2023-01-06T00:17:08;10.23;;;6.07;;
21503;SDS011;10913;51.992;9.228;2023-01-06T00:19:33;12.20;;;6.70;;
21503;SDS011;10913;51.992;9.228;2023-01-06T00:21:59;13.55;;;6.57;;
21503;SDS011;10913;51.992;9.228;2023-01-06T00:24:24;11.05;;;6.38;;
21503;SDS011;10913;51.992;9.228;2023-01-06T00:26:50;9.27;;;5.82;;
21503;SDS011;10913;51.992;9.228;2023-01-06T00:29:15;11.18;;;7.15;;
21503;SDS011;10913;51.992;9.228;2023-01-06T00:31:40;13.18;;;7.13;;
21503;SDS011;10913;51.992;9.228;2023-01-06T00:34:06;9.70;;;6.50;;
21503;SDS011;10913;51.992;9.228;2023-01-06T00:36:31;13.43;;;6.57;;
21503;SDS011;10913;51.992;9.228;2023-01-06T00:38:56;10.57;;;6.03;;
21503;SDS011;10913;51.992;9.228;2023-01-06T00:41:22;12.88;;;6.68;;
21503;SDS011;10913;51.992;9.228;2023-01-06T00:44:06;10.47;;;6.30;;
21503;SDS011;10913;51.992;9.228;2023-01-06T00:46:32;8.25;;;5.75;;
21503;SDS011;10913;51.992;9.228;2023-01-06T00:48:58;10.75;;;5.82;;
21503;SDS011;10913;51.992;9.228;2023-01-06T00:51:25;10.30;;;5.65;;
21503;SDS011;10913;51.992;9.228;2023-01-06T00:53:51;9.43;;;5.82;;
21503;SDS011;10913;51.992;9.228;2023-01-06T00:56:17;8.82;;;5.40;;
21503;SDS011;10913;51.992;9.228;2023-01-06T00:58:42;8.02;;;5.47;;
21503;SDS011;10913;51.992;9.228;2023-01-06T01:01:08;7.13;;;4.82;;
21503;SDS011;10913;51.992;9.228;2023-01-06T01:03:34;9.40;;;5.93;;
21503;SDS011;10913;51.992;9.228;2023-01-06T01:06:04;7.43;;;5.35;;
21503;SDS011;10913;51.992;9.228;2023-01-06T01:08:32;8.70;;;5.40;;
21503;SDS011;10913;51.992;9.228;2023-01-06T01:11:02;9.18;;;5.30;;
21503;SDS011;10913;51.992;9.228;2023-01-06T01:13:28;8.77;;;5.35;;
21503;SDS011;10913;51.992;9.228;2023-01-06T01:15:54;8.85;;;4.97;;
21503;SDS011;10913;51.992;9.228;2023-01-06T01:18:19;4.80;;;3.33;;
21503;SDS011;10913;51.992;9.228;2023-01-06T01:20:45;5.72;;;3.22;;
21503;SDS011;10913;51.992;9.228;2023-01-06T01:23:11;5.35;;;3.00;;
21503;SDS011;10913;51.992;9.228;2023-01-06T01:25:36;3.95;;;2.63;;
21503;SDS011;10913;51.992;9.228;2023-01-06T01:28:02;4.47;;;2.80;;
21503;SDS011;10913;51.992;9.228;2023-01-06T01:30:27;4.90;;;2.90;;
21503;SDS011;10913;51.992;9.228;2023-01-06T01:32:53;4.07;;;2.00;;
21503;SDS011;10913;51.992;9.228;2023-01-06T01:35:18;2.92;;;2.20;;
21503;SDS011;10913;51.992;9.228;2023-01-06T01:37:43;3.72;;;1.90;;
21503;SDS011;10913;51.992;9.228;2023-01-06T01:40:09;3.25;;;1.80;;
21503;SDS011;10913;51.992;9.228;2023-01-06T01:42:35;5.32;;;1.90;;
21503;SDS011;10913;51.992;9.228;2023-01-06T01:49:53;3.00;;;2.10;;
21503;SDS011;10913;51.992;9.228;2023-01-06T01:52:22;4.90;;;2.80;;
21503;SDS011;10913;51.992;9.228;2023-01-06T01:54:49;3.85;;;2.40;;
21503;SDS011;10913;51.992;9.228;2023-01-06T01:57:31;3.15;;;2.60;;
21503;SDS011;10913;51.992;9.228;2023-01-06T02:00:06;3.97;;;2.40;;
21503;SDS011;10913;51.992;9.228;2023-01-06T02:02:32;5.65;;;2.90;;
21503;SDS011;10913;51.992;9.228;2023-01-06T02:04:58;4.10;;;2.97;;
21503;SDS011;10913;51.992;9.228;2023-01-06T02:07:25;5.15;;;2.85;;
21503;SDS011;10913;51.992;9.228;2023-01-06T02:12:36;4.65;;;3.17;;
21503;SDS011;10913;51.992;9.228;2023-01-06T02:15:12;5.70;;;3.10;;
21503;SDS011;10913;51.992;9.228;2023-01-06T02:20:28;5.03;;;2.97;;
21503;SDS011;10913;51.992;9.228;2023-01-06T02:42:45;4.38;;;3.03;;
21503;SDS011;10913;51.992;9.228;2023-01-06T02:50:54;4.40;;;3.80;;
21503;SDS011;10913;51.992;9.228;2023-01-06T02:56:54;5.55;;;4.07;;
21503;SDS011;10913;51.992;9.228;2023-01-06T02:59:57;4.32;;;3.50;;
21503;SDS011;10913;51.992;9.228;2023-01-06T03:02:33;4.20;;;3.45;;
21503;SDS011;10913;51.992;9.228;2023-01-06T03:05:01;4.05;;;3.35;;
21503;SDS011;10913;51.992;9.228;2023-01-06T03:07:30;5.78;;;4.10;;
21503;SDS011;10913;51.992;9.228;2023-01-06T03:09:57;5.20;;;3.50;;
21503;SDS011;10913;51.992;9.228;2023-01-06T03:12:27;5.38;;;3.60;;
21503;SDS011;10913;51.992;9.228;2023-01-06T03:14:59;4.00;;;3.40;;
21503;SDS011;10913;51.992;9.228;2023-01-06T03:17:24;6.47;;;4.65;;
21503;SDS011;10913;51.992;9.228;2023-01-06T03:19:50;7.20;;;5.10;;
21503;SDS011;10913;51.992;9.228;2023-01-06T03:22:16;6.88;;;4.68;;
21503;SDS011;10913;51.992;9.228;2023-01-06T03:24:42;5.53;;;4.50;;
21503;SDS011;10913;51.992;9.228;2023-01-06T03:27:09;5.03;;;3.85;;
21503;SDS011;10913;51.992;9.228;2023-01-06T03:29:34;5.47;;;3.60;;
21503;SDS011;10913;51.992;9.228;2023-01-06T03:32:03;3.08;;;2.70;;
21503;SDS011;10913;51.992;9.228;2023-01-06T03:34:41;3.50;;;2.25;;
21503;SDS011;10913;51.992;9.228;2023-01-06T03:39:59;5.57;;;2.45;;
21503;SDS011;10913;51.992;9.228;2023-01-06T03:47:55;3.03;;;1.55;;
21503;SDS011;10913;51.992;9.228;2023-01-06T03:50:34;3.83;;;1.63;;
21503;SDS011;10913;51.992;9.228;2023-01-06T03:53:14;4.30;;;1.77;;
21503;SDS011;10913;51.992;9.228;2023-01-06T03:55:45;3.03;;;1.58;;
21503;SDS011;10913;51.992;9.228;2023-01-06T03:58:12;2.05;;;1.48;;
21503;SDS011;10913;51.992;9.228;2023-01-06T04:00:41;4.22;;;1.38;;
21503;SDS011;10913;51.992;9.228;2023-01-06T04:03:13;1.88;;;1.40;;
21503;SDS011;10913;51.992;9.228;2023-01-06T04:05:40;4.63;;;1.40;;
21503;SDS011;10913;51.992;9.228;2023-01-06T04:08:05;2.30;;;1.10;;
21503;SDS011;10913;51.992;9.228;2023-01-06T04:10:31;3.22;;;1.55;;
21503;SDS011;10913;51.992;9.228;2023-01-06T04:12:56;3.00;;;1.23;;
21503;SDS011;10913;51.992;9.228;2023-01-06T04:15:23;2.35;;;1.23;;
21503;SDS011;10913;51.992;9.228;2023-01-06T04:17:50;2.45;;;1.10;;
21503;SDS011;10913;51.992;9.228;2023-01-06T04:20:17;4.03;;;1.20;;
21503;SDS011;10913;51.992;9.228;2023-01-06T04:22:44;5.63;;;1.20;;
21503;SDS011;10913;51.992;9.228;2023-01-06T04:25:10;2.67;;;1.10;;
21503;SDS011;10913;51.992;9.228;2023-01-06T04:27:36;4.50;;;1.25;;
21503;SDS011;10913;51.992;9.228;2023-01-06T04:30:02;1.48;;;1.00;;
21503;SDS011;10913;51.992;9.228;2023-01-06T04:32:28;2.85;;;1.08;;
21503;SDS011;10913;51.992;9.228;2023-01-06T04:34:54;2.47;;;0.90;;
21503;SDS011;10913;51.992;9.228;2023-01-06T04:37:19;2.25;;;1.00;;
21503;SDS011;10913;51.992;9.228;2023-01-06T04:39:45;1.88;;;1.00;;
21503;SDS011;10913;51.992;9.228;2023-01-06T04:42:10;4.30;;;1.10;;
21503;SDS011;10913;51.992;9.228;2023-01-06T04:44:35;3.30;;;0.95;;
21503;SDS011;10913;51.992;9.228;2023-01-06T04:47:01;3.33;;;1.05;;
21503;SDS011;10913;51.992;9.228;2023-01-06T04:49:26;2.30;;;0.88;;
21503;SDS011;10913;51.992;9.228;2023-01-06T04:51:51;1.27;;;0.80;;
21503;SDS011;10913;51.992;9.228;2023-01-06T04:54:17;1.58;;;0.90;;
21503;SDS011;10913;51.992;9.228;2023-01-06T04:56:42;2.25;;;1.00;;
21503;SDS011;10913;51.992;9.228;2023-01-06T04:59:08;3.70;;;1.20;;
21503;SDS011;10913;51.992;9.228;2023-01-06T05:01:33;3.20;;;1.20;;
21503;SDS011;10913;51.992;9.228;2023-01-06T05:04:00;2.80;;;1.02;;
21503;SDS011;10913;51.992;9.228;2023-01-06T05:06:26;2.75;;;1.05;;
21503;SDS011;10913;51.992;9.228;2023-01-06T05:08:52;3.20;;;1.30;;
21503;SDS011;10913;51.992;9.228;2023-01-06T05:11:18;1.45;;;0.90;;
21503;SDS011;10913;51.992;9.228;2023-01-06T05:13:46;3.00;;;1.15;;
21503;SDS011;10913;51.992;9.228;2023-01-06T05:16:31;1.65;;;0.90;;
21503;SDS011;10913;51.992;9.228;2023-01-06T05:18:58;2.42;;;1.00;;
21503;SDS011;10913;51.992;9.228;2023-01-06T05:21:26;2.20;;;0.90;;
21503;SDS011;10913;51.992;9.228;2023-01-06T05:23:53;3.33;;;1.10;;
21503;SDS011;10913;51.992;9.228;2023-01-06T05:26:19;2.60;;;1.02;;
21503;SDS011;10913;51.992;9.228;2023-01-06T05:28:47;4.10;;;1.23;;
21503;SDS011;10913;51.992;9.228;2023-01-06T05:31:12;2.92;;;1.10;;
21503;SDS011;10913;51.992;9.228;2023-01-06T05:33:38;3.17;;;1.60;;
21503;SDS011;10913;51.992;9.228;2023-01-06T05:36:05;2.72;;;1.13;;
21503;SDS011;10913;51.992;9.228;2023-01-06T05:38:32;2.92;;;1.50;;
21503;SDS011;10913;51.992;9.228;2023-01-06T05:40:58;4.00;;;1.30;;
21503;SDS011;10913;51.992;9.228;2023-01-06T05:43:24;2.63;;;1.65;;
21503;SDS011;10913;51.992;9.228;2023-01-06T05:45:51;3.55;;;1.30;;
21503;SDS011;10913;51.992;9.228;2023-01-06T05:48:16;3.15;;;1.40;;
21503;SDS011;10913;51.992;9.228;2023-01-06T05:50:42;3.42;;;1.73;;
21503;SDS011;10913;51.992;9.228;2023-01-06T05:53:08;3.75;;;1.55;;
21503;SDS011;10913;51.992;9.228;2023-01-06T05:55:33;3.72;;;1.40;;
21503;SDS011;10913;51.992;9.228;2023-01-06T05:57:59;4.18;;;1.42;;
21503;SDS011;10913;51.992;9.228;2023-01-06T06:00:24;3.95;;;1.58;;
21503;SDS011;10913;51.992;9.228;2023-01-06T06:02:50;2.63;;;1.50;;
21503;SDS011;10913;51.992;9.228;2023-01-06T06:05:15;4.32;;;1.60;;
21503;SDS011;10913;51.992;9.228;2023-01-06T06:07:41;4.10;;;1.60;;
21503;SDS011;10913;51.992;9.228;2023-01-06T06:10:07;2.70;;;1.45;;
21503;SDS011;10913;51.992;9.228;2023-01-06T06:12:33;3.83;;;1.40;;
21503;SDS011;10913;51.992;9.228;2023-01-06T06:14:59;4.75;;;1.30;;
21503;SDS011;10913;51.992;9.228;2023-01-06T06:17:24;4.82;;;1.55;;
21503;SDS011;10913;51.992;9.228;2023-01-06T06:19:50;3.42;;;1.50;;
21503;SDS011;10913;51.992;9.228;2023-01-06T06:22:15;3.30;;;1.60;;
21503;SDS011;10913;51.992;9.228;2023-01-06T06:24:41;2.50;;;1.50;;
21503;SDS011;10913;51.992;9.228;2023-01-06T06:27:06;2.38;;;1.38;;
21503;SDS011;10913;51.992;9.228;2023-01-06T06:29:32;4.63;;;1.60;;
21503;SDS011;10913;51.992;9.228;2023-01-06T06:31:57;2.85;;;1.40;;
21503;SDS011;10913;51.992;9.228;2023-01-06T06:34:22;3.85;;;1.52;;
21503;SDS011;10913;51.992;9.228;2023-01-06T06:36:48;3.95;;;1.40;;
21503;SDS011;10913;51.992;9.228;2023-01-06T06:39:13;4.60;;;1.30;;
21503;SDS011;10913;51.992;9.228;2023-01-06T06:41:39;3.80;;;1.35;;
21503;SDS011;10913;51.992;9.228;2023-01-06T06:44:04;2.63;;;1.20;;
21503;SDS011;10913;51.992;9.228;2023-01-06T06:46:29;4.75;;;1.40;;
21503;SDS011;10913;51.992;9.228;2023-01-06T06:48:55;3.88;;;1.45;;
21503;SDS011;10913;51.992;9.228;2023-01-06T06:51:20;3.53;;;1.20;;
21503;SDS011;10913;51.992;9.228;2023-01-06T06:53:47;3.20;;;1.15;;
21503;SDS011;10913;51.992;9.228;2023-01-06T06:56:13;6.05;;;1.38;;
21503;SDS011;10913;51.992;9.228;2023-01-06T06:58:40;3.22;;;1.35;;
21503;SDS011;10913;51.992;9.228;2023-01-06T07:01:12;2.65;;;1.30;;
21503;SDS011;10913;51.992;9.228;2023-01-06T07:03:39;3.17;;;1.23;;
21503;SDS011;10913;51.992;9.228;2023-01-06T07:06:05;2.13;;;1.20;;
21503;SDS011;10913;51.992;9.228;2023-01-06T07:08:33;3.92;;;1.25;;
21503;SDS011;10913;51.992;9.228;2023-01-06T07:10:59;3.17;;;1.20;;
21503;SDS011;10913;51.992;9.228;2023-01-06T07:13:25;3.63;;;1.40;;
21503;SDS011;10913;51.992;9.228;2023-01-06T07:15:50;1.85;;;1.30;;
21503;SDS011;10913;51.992;9.228;2023-01-06T07:18:16;1.77;;;1.20;;
21503;SDS011;10913;51.992;9.228;2023-01-06T07:20:45;2.70;;;1.40;;
21503;SDS011;10913;51.992;9.228;2023-01-06T07:23:11;4.18;;;1.45;;
21503;SDS011;10913;51.992;9.228;2023-01-06T07:25:36;2.00;;;1.20;;
21503;SDS011;10913;51.992;9.228;2023-01-06T07:28:02;3.85;;;1.55;;
21503;SDS011;10913;51.992;9.228;2023-01-06T07:30:29;2.60;;;1.40;;
21503;SDS011;10913;51.992;9.228;2023-01-06T07:32:55;3.70;;;1.23;;
21503;SDS011;10913;51.992;9.228;2023-01-06T07:35:21;1.73;;;1.20;;
21503;SDS011;10913;51.992;9.228;2023-01-06T07:37:46;3.20;;;1.35;;
21503;SDS011;10913;51.992;9.228;2023-01-06T07:40:12;2.47;;;1.30;;
21503;SDS011;10913;51.992;9.228;2023-01-06T07:42:38;2.78;;;1.20;;
21503;SDS011;10913;51.992;9.228;2023-01-06T07:45:04;2.42;;;1.13;;
21503;SDS011;10913;51.992;9.228;2023-01-06T07:47:31;2.28;;;1.20;;
21503;SDS011;10913;51.992;9.228;2023-01-06T07:49:56;3.47;;;1.17;;
21503;SDS011;10913;51.992;9.228;2023-01-06T07:52:22;1.88;;;1.17;;
21503;SDS011;10913;51.992;9.228;2023-01-06T07:54:47;3.83;;;1.40;;
21503;SDS011;10913;51.992;9.228;2023-01-06T07:57:12;2.00;;;1.20;;
21503;SDS011;10913;51.992;9.228;2023-01-06T07:59:38;1.70;;;1.17;;
21503;SDS011;10913;51.992;9.228;2023-01-06T08:02:03;2.85;;;1.13;;
21503;SDS011;10913;51.992;9.228;2023-01-06T08:04:29;3.25;;;1.02;;
21503;SDS011;10913;51.992;9.228;2023-01-06T08:06:54;2.13;;;1.10;;
21503;SDS011;10913;51.992;9.228;2023-01-06T08:09:19;3.30;;;1.20;;
21503;SDS011;10913;51.992;9.228;2023-01-06T08:11:45;1.95;;;1.05;;
21503;SDS011;10913;51.992;9.228;2023-01-06T08:14:10;1.80;;;1.10;;
21503;SDS011;10913;51.992;9.228;2023-01-06T08:16:39;2.67;;;1.00;;
21503;SDS011;10913;51.992;9.228;2023-01-06T08:19:05;3.53;;;1.00;;
21503;SDS011;10913;51.992;9.228;2023-01-06T08:21:31;3.55;;;1.30;;
21503;SDS011;10913;51.992;9.228;2023-01-06T08:23:57;2.67;;;1.10;;
21503;SDS011;10913;51.992;9.228;2023-01-06T08:26:22;3.13;;;1.08;;
21503;SDS011;10913;51.992;9.228;2023-01-06T08:28:48;2.00;;;0.95;;
21503;SDS011;10913;51.992;9.228;2023-01-06T08:31:17;1.80;;;1.00;;
21503;SDS011;10913;51.992;9.228;2023-01-06T08:33:44;1.73;;;1.10;;
21503;SDS011;10913;51.992;9.228;2023-01-06T08:36:14;2.17;;;1.20;;
21503;SDS011;10913;51.992;9.228;2023-01-06T08:38:41;3.05;;;1.10;;
21503;SDS011;10913;51.992;9.228;2023-01-06T08:41:07;2.33;;;1.17;;
21503;SDS011;10913;51.992;9.228;2023-01-06T08:43:33;2.05;;;1.25;;
21503;SDS011;10913;51.992;9.228;2023-01-06T08:46:00;1.58;;;1.10;;
21503;SDS011;10913;51.992;9.228;2023-01-06T08:48:27;2.15;;;1.05;;
21503;SDS011;10913;51.992;9.228;2023-01-06T08:50:53;1.83;;;1.10;;
21503;SDS011;10913;51.992;9.228;2023-01-06T08:53:18;3.45;;;1.15;;
21503;SDS011;10913;51.992;9.228;2023-01-06T08:55:44;2.63;;;1.20;;
21503;SDS011;10913;51.992;9.228;2023-01-06T08:58:10;3.25;;;1.10;;
21503;SDS011;10913;51.992;9.228;2023-01-06T09:00:38;1.05;;;1.05;;
21503;SDS011;10913;51.992;9.228;2023-01-06T09:03:05;1.80;;;1.10;;
21503;SDS011;10913;51.992;9.228;2023-01-06T09:05:31;1.27;;;1.00;;
21503;SDS011;10913;51.992;9.228;2023-01-06T09:07:56;1.98;;;1.10;;
21503;SDS011;10913;51.992;9.228;2023-01-06T09:10:22;1.83;;;1.00;;
21503;SDS011;10913;51.992;9.228;2023-01-06T09:12:48;3.33;;;1.20;;
21503;SDS011;10913;51.992;9.228;2023-01-06T09:15:13;3.40;;;1.13;;
21503;SDS011;10913;51.992;9.228;2023-01-06T09:17:39;1.23;;;1.10;;
21503;SDS011;10913;51.992;9.228;2023-01-06T09:20:05;1.38;;;1.17;;
21503;SDS011;10913;51.992;9.228;2023-01-06T09:22:30;3.30;;;1.00;;
21503;SDS011;10913;51.992;9.228;2023-01-06T09:24:56;1.83;;;1.00;;
21503;SDS011;10913;51.992;9.228;2023-01-06T09:27:21;1.98;;;1.10;;
21503;SDS011;10913;51.992;9.228;2023-01-06T09:29:47;1.90;;;1.00;;
21503;SDS011;10913;51.992;9.228;2023-01-06T09:32:12;2.42;;;1.00;;
21503;SDS011;10913;51.992;9.228;2023-01-06T09:34:37;2.75;;;1.20;;
21503;SDS011;10913;51.992;9.228;2023-01-06T09:37:03;4.47;;;1.20;;
21503;SDS011;10913;51.992;9.228;2023-01-06T09:39:29;1.75;;;1.17;;
21503;SDS011;10913;51.992;9.228;2023-01-06T09:47:12;0.93;;;0.82;;
21503;SDS011;10913;51.992;9.228;2023-01-06T09:50:00;1.42;;;0.90;;
21503;SDS011;10913;51.992;9.228;2023-01-06T09:52:48;1.25;;;1.00;;
21503;SDS011;10913;51.992;9.228;2023-01-06T09:55:31;1.00;;;0.90;;
21503;SDS011;10913;51.992;9.228;2023-01-06T09:57:58;2.13;;;1.00;;
21503;SDS011;10913;51.992;9.228;2023-01-06T10:03:20;1.73;;;0.90;;
21503;SDS011;10913;51.992;9.228;2023-01-06T10:27:48;1.48;;;1.38;;
21503;SDS011;10913;51.992;9.228;2023-01-06T10:30:24;1.52;;;1.20;;
21503;SDS011;10913;51.992;9.228;2023-01-06T10:32:54;2.05;;;1.15;;
21503;SDS011;10913;51.992;9.228;2023-01-06T10:35:21;2.30;;;1.17;;
21503;SDS011;10913;51.992;9.228;2023-01-06T10:37:49;1.35;;;1.10;;
21503;SDS011;10913;51.992;9.228;2023-01-06T10:42:52;1.60;;;1.25;;
21503;SDS011;10913;51.992;9.228;2023-01-06T10:45:53;3.95;;;1.20;;
21503;SDS011;10913;51.992;9.228;2023-01-06T10:50:40;2.25;;;1.10;;
21503;SDS011;10913;51.992;9.228;2023-01-06T10:53:06;1.35;;;1.25;;
21503;SDS011;10913;51.992;9.228;2023-01-06T10:55:37;1.95;;;1.20;;
21503;SDS011;10913;51.992;9.228;2023-01-06T11:00:55;1.98;;;1.30;;
21503;SDS011;10913;51.992;9.228;2023-01-06T11:03:22;2.80;;;2.55;;
21503;SDS011;10913;51.992;9.228;2023-01-06T11:05:57;1.70;;;1.60;;
21503;SDS011;10913;51.992;9.228;2023-01-06T11:08:43;1.58;;;1.35;;
21503;SDS011;10913;51.992;9.228;2023-01-06T11:11:10;2.17;;;1.40;;
21503;SDS011;10913;51.992;9.228;2023-01-06T11:13:39;1.58;;;1.30;;
21503;SDS011;10913;51.992;9.228;2023-01-06T11:16:17;1.73;;;1.30;;
21503;SDS011;10913;51.992;9.228;2023-01-06T11:18:49;1.60;;;1.50;;
21503;SDS011;10913;51.992;9.228;2023-01-06T11:21:17;2.08;;;1.70;;
21503;SDS011;10913;51.992;9.228;2023-01-06T11:23:43;1.63;;;1.50;;
21503;SDS011;10913;51.992;9.228;2023-01-06T11:28:35;2.30;;;1.50;;
21503;SDS011;10913;51.992;9.228;2023-01-06T11:31:05;1.65;;;1.55;;
21503;SDS011;10913;51.992;9.228;2023-01-06T11:33:32;2.10;;;1.70;;
21503;SDS011;10913;51.992;9.228;2023-01-06T11:36:10;1.70;;;1.60;;
21503;SDS011;10913;51.992;9.228;2023-01-06T11:38:41;1.90;;;1.80;;
21503;SDS011;10913;51.992;9.228;2023-01-06T11:41:36;1.90;;;1.80;;
21503;SDS011;10913;51.992;9.228;2023-01-06T11:46:46;2.40;;;2.10;;
21503;SDS011;10913;51.992;9.228;2023-01-06T11:49:25;2.30;;;2.20;;
21503;SDS011;10913;51.992;9.228;2023-01-06T11:51:57;2.55;;;2.35;;
21503;SDS011;10913;51.992;9.228;2023-01-06T11:54:37;3.65;;;2.70;;
21503;SDS011;10913;51.992;9.228;2023-01-06T12:00:37;3.40;;;3.10;;
21503;SDS011;10913;51.992;9.228;2023-01-06T12:05:16;3.83;;;3.53;;
21503;SDS011;10913;51.992;9.228;2023-01-06T12:07:51;3.80;;;3.50;;
21503;SDS011;10913;51.992;9.228;2023-01-06T12:10:22;3.55;;;3.35;;
21503;SDS011;10913;51.992;9.228;2023-01-06T12:12:53;4.32;;;4.00;;
21503;SDS011;10913;51.992;9.228;2023-01-06T12:15:18;5.47;;;4.03;;
21503;SDS011;10913;51.992;9.228;2023-01-06T12:20:21;5.00;;;4.50;;
21503;SDS011;10913;51.992;9.228;2023-01-06T12:25:18;4.32;;;3.92;;
21503;SDS011;10913;51.992;9.228;2023-01-06T12:27:49;4.22;;;3.92;;
21503;SDS011;10913;51.992;9.228;2023-01-06T12:30:20;3.30;;;3.10;;
21503;SDS011;10913;51.992;9.228;2023-01-06T12:32:52;3.60;;;3.30;;
21503;SDS011;10913;51.992;9.228;2023-01-06T12:35:20;3.50;;;3.30;;
21503;SDS011;10913;51.992;9.228;2023-01-06T12:37:54;3.42;;;3.22;;
21503;SDS011;10913;51.992;9.228;2023-01-06T12:40:26;3.10;;;2.90;;
21503;SDS011;10913;51.992;9.228;2023-01-06T12:43:16;3.30;;;3.00;;
21503;SDS011;10913;51.992;9.228;2023-01-06T12:53:40;3.90;;;3.42;;
21503;SDS011;10913;51.992;9.228;2023-01-06T13:01:49;3.63;;;3.42;;
21503;SDS011;10913;51.992;9.228;2023-01-06T13:10:23;4.03;;;3.60;;
21503;SDS011;10913;51.992;9.228;2023-01-06T13:16:01;3.80;;;3.47;;
21503;SDS011;10913;51.992;9.228;2023-01-06T13:18:35;3.92;;;3.63;;
21503;SDS011;10913;51.992;9.228;2023-01-06T13:21:22;3.90;;;3.70;;
21503;SDS011;10913;51.992;9.228;2023-01-06T13:23:59;4.03;;;3.72;;
21503;SDS011;10913;51.992;9.228;2023-01-06T13:32:32;4.60;;;4.18;;
21503;SDS011;10913;51.992;9.228;2023-01-06T13:40:13;4.72;;;4.32;;
21503;SDS011;10913;51.992;9.228;2023-01-06T13:42:48;4.55;;;4.15;;
21503;SDS011;10913;51.992;9.228;2023-01-06T13:45:17;4.63;;;4.32;;
21503;SDS011;10913;51.992;9.228;2023-01-06T13:47:46;4.20;;;3.90;;
21503;SDS011;10913;51.992;9.228;2023-01-06T13:50:15;4.90;;;4.50;;
21503;SDS011;10913;51.992;9.228;2023-01-06T13:52:43;4.63;;;4.32;;
21503;SDS011;10913;51.992;9.228;2023-01-06T13:55:26;4.82;;;4.43;;
21503;SDS011;10913;51.992;9.228;2023-01-06T13:57:54;5.45;;;5.05;;
21503;SDS011;10913;51.992;9.228;2023-01-06T14:00:21;5.38;;;4.88;;
21503;SDS011;10913;51.992;9.228;2023-01-06T14:07:49;4.88;;;4.47;;
21503;SDS011;10913;51.992;9.228;2023-01-06T14:10:32;4.53;;;4.18;;
21503;SDS011;10913;51.992;9.228;2023-01-06T14:13:01;5.68;;;5.05;;
21503;SDS011;10913;51.992;9.228;2023-01-06T14:15:31;5.57;;;5.07;;
21503;SDS011;10913;51.992;9.228;2023-01-06T14:17:59;4.78;;;4.47;;
21503;SDS011;10913;51.992;9.228;2023-01-06T14:20:30;5.38;;;4.93;;
21503;SDS011;10913;51.992;9.228;2023-01-06T14:22:58;5.50;;;4.95;;
21503;SDS011;10913;51.992;9.228;2023-01-06T14:25:26;5.60;;;5.10;;
21503;SDS011;10913;51.992;9.228;2023-01-06T14:35:13;5.70;;;5.20;;
21503;SDS011;10913;51.992;9.228;2023-01-06T14:37:51;5.90;;;5.32;;
21503;SDS011;10913;51.992;9.228;2023-01-06T14:40:23;5.60;;;5.20;;
21503;SDS011;10913;51.992;9.228;2023-01-06T14:42:49;5.97;;;5.40;;
21503;SDS011;10913;51.992;9.228;2023-01-06T14:45:22;5.30;;;4.80;;
21503;SDS011;10913;51.992;9.228;2023-01-06T14:51:03;5.25;;;4.85;;
21503;SDS011;10913;51.992;9.228;2023-01-06T14:53:34;6.63;;;5.65;;
21503;SDS011;10913;51.992;9.228;2023-01-06T14:56:06;5.75;;;5.15;;
21503;SDS011;10913;51.992;9.228;2023-01-06T14:58:35;6.15;;;5.05;;
21503;SDS011;10913;51.992;9.228;2023-01-06T15:01:01;6.05;;;5.45;;
21503;SDS011;10913;51.992;9.228;2023-01-06T15:03:27;5.90;;;5.40;;
21503;SDS011;10913;51.992;9.228;2023-01-06T15:06:39;5.93;;;5.38;;
21503;SDS011;10913;51.992;9.228;2023-01-06T15:08:44;5.82;;;5.32;;
21503;SDS011;10913;51.992;9.228;2023-01-06T15:11:22;5.93;;;5.35;;
21503;SDS011;10913;51.992;9.228;2023-01-06T15:13:53;6.05;;;5.22;;
21503;SDS011;10913;51.992;9.228;2023-01-06T15:18:50;5.72;;;5.28;;
21503;SDS011;10913;51.992;9.228;2023-01-06T15:21:17;6.15;;;5.65;;
21503;SDS011;10913;51.992;9.228;2023-01-06T15:23:47;5.90;;;5.40;;
21503;SDS011;10913;51.992;9.228;2023-01-06T15:26:20;6.68;;;5.32;;
21503;SDS011;10913;51.992;9.228;2023-01-06T15:31:33;6.90;;;6.20;;
21503;SDS011;10913;51.992;9.228;2023-01-06T15:34:06;6.00;;;5.50;;
21503;SDS011;10913;51.992;9.228;2023-01-06T15:36:42;6.05;;;5.32;;
21503;SDS011;10913;51.992;9.228;2023-01-06T15:39:10;7.18;;;5.88;;
21503;SDS011;10913;51.992;9.228;2023-01-06T15:41:39;6.00;;;5.30;;
21503;SDS011;10913;51.992;9.228;2023-01-06T15:49:39;6.78;;;6.07;;
21503;SDS011;10913;51.992;9.228;2023-01-06T15:52:12;5.80;;;5.30;;
21503;SDS011;10913;51.992;9.228;2023-01-06T15:54:48;6.78;;;6.05;;
21503;SDS011;10913;51.992;9.228;2023-01-06T15:57:15;6.38;;;5.88;;
21503;SDS011;10913;51.992;9.228;2023-01-06T15:59:41;6.40;;;5.80;;
21503;SDS011;10913;51.992;9.228;2023-01-06T16:02:16;6.70;;;6.00;;
21503;SDS011;10913;51.992;9.228;2023-01-06T16:04:43;5.88;;;5.20;;
21503;SDS011;10913;51.992;9.228;2023-01-06T16:10:00;5.60;;;5.10;;
21503;SDS011;10913;51.992;9.228;2023-01-06T16:12:26;5.85;;;5.35;;
21503;SDS011;10913;51.992;9.228;2023-01-06T16:14:51;5.40;;;4.90;;
21503;SDS011;10913;51.992;9.228;2023-01-06T16:19:56;5.07;;;4.68;;
21503;SDS011;10913;51.992;9.228;2023-01-06T16:22:30;5.05;;;4.55;;
21503;SDS011;10913;51.992;9.228;2023-01-06T16:25:06;6.28;;;5.05;;
21503;SDS011;10913;51.992;9.228;2023-01-06T16:27:47;5.40;;;4.90;;
21503;SDS011;10913;51.992;9.228;2023-01-06T16:30:18;5.45;;;4.43;;
21503;SDS011;10913;51.992;9.228;2023-01-06T16:32:44;6.97;;;4.35;;
21503;SDS011;10913;51.992;9.228;2023-01-06T16:35:21;5.70;;;4.90;;
21503;SDS011;10913;51.992;9.228;2023-01-06T16:37:48;5.07;;;4.22;;
21503;SDS011;10913;51.992;9.228;2023-01-06T16:40:15;4.78;;;4.38;;
21503;SDS011;10913;51.992;9.228;2023-01-06T16:42:42;4.78;;;4.38;;
21503;SDS011;10913;51.992;9.228;2023-01-06T16:47:40;4.75;;;4.28;;
21503;SDS011;10913;51.992;9.228;2023-01-06T16:50:12;6.10;;;4.60;;
21503;SDS011;10913;51.992;9.228;2023-01-06T16:52:43;4.50;;;4.10;;
21503;SDS011;10913;51.992;9.228;2023-01-06T16:55:12;5.32;;;4.30;;
21503;SDS011;10913;51.992;9.228;2023-01-06T16:57:39;5.03;;;4.63;;
21503;SDS011;10913;51.992;9.228;2023-01-06T17:00:11;4.63;;;4.18;;
21503;SDS011;10913;51.992;9.228;2023-01-06T17:02:39;5.65;;;4.53;;
21503;SDS011;10913;51.992;9.228;2023-01-06T17:05:25;5.10;;;4.60;;
21503;SDS011;10913;51.992;9.228;2023-01-06T17:07:58;4.50;;;4.10;;
21503;SDS011;10913;51.992;9.228;2023-01-06T17:10:24;5.07;;;4.10;;
21503;SDS011;10913;51.992;9.228;2023-01-06T17:12:54;4.93;;;4.40;;
21503;SDS011;10913;51.992;9.228;2023-01-06T17:15:42;4.75;;;4.28;;
21503;SDS011;10913;51.992;9.228;2023-01-06T17:18:29;4.72;;;4.15;;
21503;SDS011;10913;51.992;9.228;2023-01-06T17:21:00;4.75;;;4.30;;
21503;SDS011;10913;51.992;9.228;2023-01-06T17:26:17;5.93;;;5.32;;
21503;SDS011;10913;51.992;9.228;2023-01-06T17:28:44;10.02;;;8.00;;
21503;SDS011;10913;51.992;9.228;2023-01-06T17:31:15;12.57;;;11.10;;
21503;SDS011;10913;51.992;9.228;2023-01-06T17:33:42;10.23;;;8.65;;
21503;SDS011;10913;51.992;9.228;2023-01-06T17:36:43;8.20;;;7.40;;
21503;SDS011;10913;51.992;9.228;2023-01-06T17:39:06;7.28;;;6.55;;
21503;SDS011;10913;51.992;9.228;2023-01-06T17:41:37;6.93;;;6.20;;
21503;SDS011;10913;51.992;9.228;2023-01-06T17:44:06;7.22;;;6.20;;
21503;SDS011;10913;51.992;9.228;2023-01-06T17:46:37;6.53;;;5.40;;
21503;SDS011;10913;51.992;9.228;2023-01-06T17:51:43;6.03;;;5.43;;